sensor_id;sensor_type;location;lat;lon;timestamp;P1;durP1;ratioP1;P2;durP2;ratioP2
26512;SDS011;14186;53.822;10.152;2022-09-24T00:00:30;10.52;;;6.65;;
26512;SDS011;14186;53.822;10.152;2022-09-24T00:05:34;20.08;;;11.18;;
26512;SDS011;14186;53.822;10.152;2022-09-24T00:10:37;13.00;;;7.45;;
26512;SDS011;14186;53.822;10.152;2022-09-24T00:15:37;9.18;;;6.20;;
26512;SDS011;14186;53.822;10.152;2022-09-24T00:20:37;9.82;;;6.20;;
26512;SDS011;14186;53.822;10.152;2022-09-24T00:25:42;10.15;;;5.68;;
26512;SDS011;14186;53.822;10.152;2022-09-24T00:30:43;8.73;;;6.97;;
26512;SDS011;14186;53.822;10.152;2022-09-24T00:35:43;11.25;;;6.97;;
26512;SDS011;14186;53.822;10.152;2022-09-24T00:40:45;8.18;;;6.75;;
26512;SDS011;14186;53.822;10.152;2022-09-24T00:45:45;11.73;;;6.60;;
26512;SDS011;14186;53.822;10.152;2022-09-24T00:50:45;9.48;;;6.63;;
26512;SDS011;14186;53.822;10.152;2022-09-24T00:55:48;11.05;;;7.32;;
26512;SDS011;14186;53.822;10.152;2022-09-24T01:00:49;8.68;;;5.93;;
26512;SDS011;14186;53.822;10.152;2022-09-24T01:05:50;8.75;;;6.43;;
26512;SDS011;14186;53.822;10.152;2022-09-24T01:16:13;9.90;;;6.35;;
26512;SDS011;14186;53.822;10.152;2022-09-24T01:21:26;10.13;;;7.15;;
26512;SDS011;14186;53.822;10.152;2022-09-24T01:26:33;9.40;;;6.82;;
26512;SDS011;14186;53.822;10.152;2022-09-24T01:31:37;11.20;;;7.87;;
26512;SDS011;14186;53.822;10.152;2022-09-24T01:36:38;11.82;;;7.93;;
26512;SDS011;14186;53.822;10.152;2022-09-24T01:41:38;12.25;;;8.52;;
26512;SDS011;14186;53.822;10.152;2022-09-24T01:46:41;14.15;;;9.20;;
26512;SDS011;14186;53.822;10.152;2022-09-24T01:51:42;10.35;;;8.18;;
26512;SDS011;14186;53.822;10.152;2022-09-24T01:56:44;10.80;;;8.38;;
26512;SDS011;14186;53.822;10.152;2022-09-24T02:01:47;15.32;;;10.00;;
26512;SDS011;14186;53.822;10.152;2022-09-24T02:06:50;14.48;;;9.48;;
26512;SDS011;14186;53.822;10.152;2022-09-24T02:11:52;13.95;;;10.35;;
26512;SDS011;14186;53.822;10.152;2022-09-24T02:16:54;14.30;;;9.70;;
26512;SDS011;14186;53.822;10.152;2022-09-24T02:21:55;19.40;;;10.02;;
26512;SDS011;14186;53.822;10.152;2022-09-24T02:26:56;12.63;;;8.95;;
26512;SDS011;14186;53.822;10.152;2022-09-24T02:31:58;15.75;;;10.50;;
26512;SDS011;14186;53.822;10.152;2022-09-24T02:36:59;13.65;;;10.50;;
26512;SDS011;14186;53.822;10.152;2022-09-24T02:42:02;12.75;;;9.70;;
26512;SDS011;14186;53.822;10.152;2022-09-24T02:47:04;10.98;;;8.60;;
26512;SDS011;14186;53.822;10.152;2022-09-24T02:52:05;12.63;;;9.10;;
26512;SDS011;14186;53.822;10.152;2022-09-24T02:57:05;13.73;;;9.85;;
26512;SDS011;14186;53.822;10.152;2022-09-24T03:02:07;12.10;;;9.43;;
26512;SDS011;14186;53.822;10.152;2022-09-24T03:07:07;12.43;;;9.80;;
26512;SDS011;14186;53.822;10.152;2022-09-24T03:12:07;15.35;;;11.50;;
26512;SDS011;14186;53.822;10.152;2022-09-24T03:17:09;13.63;;;11.07;;
26512;SDS011;14186;53.822;10.152;2022-09-24T03:22:09;14.73;;;11.73;;
26512;SDS011;14186;53.822;10.152;2022-09-24T03:27:09;16.23;;;10.82;;
26512;SDS011;14186;53.822;10.152;2022-09-24T03:32:12;16.73;;;12.55;;
26512;SDS011;14186;53.822;10.152;2022-09-24T03:37:12;17.15;;;13.02;;
26512;SDS011;14186;53.822;10.152;2022-09-24T03:42:12;18.20;;;13.02;;
26512;SDS011;14186;53.822;10.152;2022-09-24T03:47:14;16.25;;;11.77;;
26512;SDS011;14186;53.822;10.152;2022-09-24T03:52:14;17.17;;;13.10;;
26512;SDS011;14186;53.822;10.152;2022-09-24T03:57:14;19.23;;;14.40;;
26512;SDS011;14186;53.822;10.152;2022-09-24T04:02:16;16.75;;;12.32;;
26512;SDS011;14186;53.822;10.152;2022-09-24T04:07:16;21.27;;;13.90;;
26512;SDS011;14186;53.822;10.152;2022-09-24T04:12:17;19.87;;;13.47;;
26512;SDS011;14186;53.822;10.152;2022-09-24T04:17:19;15.15;;;11.50;;
26512;SDS011;14186;53.822;10.152;2022-09-24T04:22:19;19.38;;;13.40;;
26512;SDS011;14186;53.822;10.152;2022-09-24T04:27:19;17.05;;;12.02;;
26512;SDS011;14186;53.822;10.152;2022-09-24T04:32:21;16.20;;;12.73;;
26512;SDS011;14186;53.822;10.152;2022-09-24T04:37:21;17.13;;;13.07;;
26512;SDS011;14186;53.822;10.152;2022-09-24T04:42:22;17.02;;;12.82;;
26512;SDS011;14186;53.822;10.152;2022-09-24T04:47:24;21.00;;;14.15;;
26512;SDS011;14186;53.822;10.152;2022-09-24T04:52:24;19.92;;;13.93;;
26512;SDS011;14186;53.822;10.152;2022-09-24T04:57:25;18.23;;;13.65;;
26512;SDS011;14186;53.822;10.152;2022-09-24T05:02:26;18.58;;;14.73;;
26512;SDS011;14186;53.822;10.152;2022-09-24T05:07:27;17.77;;;13.07;;
26512;SDS011;14186;53.822;10.152;2022-09-24T05:12:27;20.70;;;15.40;;
26512;SDS011;14186;53.822;10.152;2022-09-24T05:17:28;21.15;;;14.90;;
26512;SDS011;14186;53.822;10.152;2022-09-24T05:22:29;18.48;;;13.90;;
26512;SDS011;14186;53.822;10.152;2022-09-24T05:27:29;18.52;;;14.13;;
26512;SDS011;14186;53.822;10.152;2022-09-24T05:32:30;19.42;;;14.35;;
26512;SDS011;14186;53.822;10.152;2022-09-24T05:37:31;21.65;;;14.95;;
26512;SDS011;14186;53.822;10.152;2022-09-24T05:42:31;28.38;;;19.98;;
26512;SDS011;14186;53.822;10.152;2022-09-24T05:47:32;30.48;;;20.83;;
26512;SDS011;14186;53.822;10.152;2022-09-24T05:52:32;23.70;;;15.90;;
26512;SDS011;14186;53.822;10.152;2022-09-24T05:57:33;17.98;;;13.80;;
26512;SDS011;14186;53.822;10.152;2022-09-24T06:02:34;17.17;;;12.80;;
26512;SDS011;14186;53.822;10.152;2022-09-24T06:07:35;15.38;;;12.13;;
26512;SDS011;14186;53.822;10.152;2022-09-24T06:12:35;18.48;;;13.75;;
26512;SDS011;14186;53.822;10.152;2022-09-24T06:17:36;17.05;;;12.55;;
26512;SDS011;14186;53.822;10.152;2022-09-24T06:22:37;17.77;;;12.15;;
26512;SDS011;14186;53.822;10.152;2022-09-24T06:27:37;15.68;;;12.52;;
26512;SDS011;14186;53.822;10.152;2022-09-24T06:32:38;21.38;;;11.40;;
26512;SDS011;14186;53.822;10.152;2022-09-24T06:37:39;18.48;;;11.20;;
26512;SDS011;14186;53.822;10.152;2022-09-24T06:42:39;15.90;;;11.48;;
26512;SDS011;14186;53.822;10.152;2022-09-24T06:47:40;15.57;;;11.10;;
26512;SDS011;14186;53.822;10.152;2022-09-24T06:52:40;14.57;;;10.77;;
26512;SDS011;14186;53.822;10.152;2022-09-24T06:57:41;18.67;;;11.90;;
26512;SDS011;14186;53.822;10.152;2022-09-24T07:02:42;17.83;;;11.82;;
26512;SDS011;14186;53.822;10.152;2022-09-24T07:07:42;19.52;;;13.15;;
26512;SDS011;14186;53.822;10.152;2022-09-24T07:12:43;15.55;;;11.75;;
26512;SDS011;14186;53.822;10.152;2022-09-24T07:17:44;15.07;;;12.40;;
26512;SDS011;14186;53.822;10.152;2022-09-24T07:22:44;14.43;;;10.95;;
26512;SDS011;14186;53.822;10.152;2022-09-24T07:27:45;14.15;;;10.43;;
26512;SDS011;14186;53.822;10.152;2022-09-24T07:32:46;14.23;;;10.32;;
26512;SDS011;14186;53.822;10.152;2022-09-24T07:37:46;14.40;;;10.43;;
26512;SDS011;14186;53.822;10.152;2022-09-24T07:42:48;14.43;;;10.18;;
26512;SDS011;14186;53.822;10.152;2022-09-24T07:47:56;13.48;;;9.38;;
26512;SDS011;14186;53.822;10.152;2022-09-24T07:52:56;12.68;;;9.63;;
26512;SDS011;14186;53.822;10.152;2022-09-24T07:57:56;14.52;;;10.73;;
26512;SDS011;14186;53.822;10.152;2022-09-24T08:02:58;15.95;;;11.55;;
26512;SDS011;14186;53.822;10.152;2022-09-24T08:08:00;15.20;;;11.82;;
26512;SDS011;14186;53.822;10.152;2022-09-24T08:13:00;17.05;;;12.45;;
26512;SDS011;14186;53.822;10.152;2022-09-24T08:18:02;19.43;;;13.87;;
26512;SDS011;14186;53.822;10.152;2022-09-24T08:23:03;18.25;;;12.57;;
26512;SDS011;14186;53.822;10.152;2022-09-24T08:28:04;27.15;;;20.20;;
26512;SDS011;14186;53.822;10.152;2022-09-24T08:33:07;52.08;;;38.60;;
26512;SDS011;14186;53.822;10.152;2022-09-24T08:38:07;21.35;;;14.55;;
26512;SDS011;14186;53.822;10.152;2022-09-24T08:43:11;18.58;;;13.95;;
26512;SDS011;14186;53.822;10.152;2022-09-24T08:48:18;21.10;;;14.10;;
26512;SDS011;14186;53.822;10.152;2022-09-24T08:53:21;20.33;;;13.77;;
26512;SDS011;14186;53.822;10.152;2022-09-24T08:58:30;17.85;;;13.20;;
26512;SDS011;14186;53.822;10.152;2022-09-24T09:03:34;18.83;;;13.55;;
26512;SDS011;14186;53.822;10.152;2022-09-24T09:08:36;20.92;;;13.80;;
26512;SDS011;14186;53.822;10.152;2022-09-24T09:13:40;19.15;;;12.45;;
26512;SDS011;14186;53.822;10.152;2022-09-24T09:18:43;19.42;;;14.07;;
26512;SDS011;14186;53.822;10.152;2022-09-24T09:23:46;18.45;;;12.80;;
26512;SDS011;14186;53.822;10.152;2022-09-24T09:28:46;15.55;;;11.23;;
26512;SDS011;14186;53.822;10.152;2022-09-24T09:33:52;15.35;;;11.55;;
26512;SDS011;14186;53.822;10.152;2022-09-24T09:38:57;14.98;;;10.98;;
26512;SDS011;14186;53.822;10.152;2022-09-24T09:44:00;15.43;;;10.82;;
26512;SDS011;14186;53.822;10.152;2022-09-24T09:49:05;14.80;;;11.32;;
26512;SDS011;14186;53.822;10.152;2022-09-24T09:54:06;14.63;;;10.38;;
26512;SDS011;14186;53.822;10.152;2022-09-24T09:59:07;16.83;;;10.93;;
26512;SDS011;14186;53.822;10.152;2022-09-24T10:04:22;16.77;;;10.70;;
26512;SDS011;14186;53.822;10.152;2022-09-24T10:09:26;15.35;;;10.38;;
26512;SDS011;14186;53.822;10.152;2022-09-24T10:14:28;15.27;;;10.23;;
26512;SDS011;14186;53.822;10.152;2022-09-24T10:19:29;13.70;;;10.35;;
26512;SDS011;14186;53.822;10.152;2022-09-24T10:24:31;16.00;;;11.68;;
26512;SDS011;14186;53.822;10.152;2022-09-24T10:29:33;14.82;;;12.07;;
26512;SDS011;14186;53.822;10.152;2022-09-24T10:34:34;15.90;;;11.70;;
26512;SDS011;14186;53.822;10.152;2022-09-24T10:39:35;16.20;;;11.77;;
26512;SDS011;14186;53.822;10.152;2022-09-24T10:44:35;14.82;;;10.85;;
26512;SDS011;14186;53.822;10.152;2022-09-24T10:54:57;20.88;;;13.93;;
26512;SDS011;14186;53.822;10.152;2022-09-24T11:00:06;18.85;;;14.93;;
26512;SDS011;14186;53.822;10.152;2022-09-24T11:05:08;16.55;;;11.90;;
26512;SDS011;14186;53.822;10.152;2022-09-24T11:10:15;16.38;;;11.93;;
26512;SDS011;14186;53.822;10.152;2022-09-24T11:15:21;17.15;;;12.68;;
26512;SDS011;14186;53.822;10.152;2022-09-24T11:20:28;27.55;;;18.70;;
26512;SDS011;14186;53.822;10.152;2022-09-24T11:30:33;15.52;;;10.55;;
26512;SDS011;14186;53.822;10.152;2022-09-24T11:35:46;14.55;;;10.75;;
26512;SDS011;14186;53.822;10.152;2022-09-24T11:40:53;12.50;;;9.85;;
26512;SDS011;14186;53.822;10.152;2022-09-24T11:46:02;13.07;;;9.27;;
26512;SDS011;14186;53.822;10.152;2022-09-24T11:51:08;13.23;;;10.15;;
26512;SDS011;14186;53.822;10.152;2022-09-24T11:56:12;14.50;;;10.05;;
26512;SDS011;14186;53.822;10.152;2022-09-24T12:01:17;13.40;;;10.32;;
26512;SDS011;14186;53.822;10.152;2022-09-24T12:06:19;18.42;;;12.07;;
26512;SDS011;14186;53.822;10.152;2022-09-24T12:11:22;21.20;;;14.77;;
26512;SDS011;14186;53.822;10.152;2022-09-24T12:16:25;22.75;;;15.52;;
26512;SDS011;14186;53.822;10.152;2022-09-24T12:21:26;28.25;;;20.08;;
26512;SDS011;14186;53.822;10.152;2022-09-24T12:26:29;25.88;;;17.55;;
26512;SDS011;14186;53.822;10.152;2022-09-24T12:31:34;25.38;;;17.00;;
26512;SDS011;14186;53.822;10.152;2022-09-24T12:36:39;19.85;;;14.45;;
26512;SDS011;14186;53.822;10.152;2022-09-24T12:41:41;21.63;;;15.27;;
26512;SDS011;14186;53.822;10.152;2022-09-24T12:46:47;19.42;;;15.32;;
26512;SDS011;14186;53.822;10.152;2022-09-24T12:51:50;20.03;;;15.00;;
26512;SDS011;14186;53.822;10.152;2022-09-24T12:56:51;17.15;;;12.15;;
26512;SDS011;14186;53.822;10.152;2022-09-24T13:01:52;18.52;;;14.02;;
26512;SDS011;14186;53.822;10.152;2022-09-24T13:06:54;21.55;;;15.50;;
26512;SDS011;14186;53.822;10.152;2022-09-24T13:11:59;26.77;;;17.17;;
26512;SDS011;14186;53.822;10.152;2022-09-24T13:17:05;28.73;;;19.38;;
26512;SDS011;14186;53.822;10.152;2022-09-24T13:22:15;25.58;;;17.42;;
26512;SDS011;14186;53.822;10.152;2022-09-24T13:27:21;27.42;;;19.55;;
26512;SDS011;14186;53.822;10.152;2022-09-24T13:32:23;27.47;;;18.70;;
26512;SDS011;14186;53.822;10.152;2022-09-24T13:37:26;30.98;;;19.30;;
26512;SDS011;14186;53.822;10.152;2022-09-24T13:42:31;29.65;;;20.17;;
26512;SDS011;14186;53.822;10.152;2022-09-24T13:47:34;26.25;;;17.70;;
26512;SDS011;14186;53.822;10.152;2022-09-24T13:52:36;24.85;;;17.20;;
26512;SDS011;14186;53.822;10.152;2022-09-24T13:57:41;26.45;;;17.15;;
26512;SDS011;14186;53.822;10.152;2022-09-24T14:02:44;24.90;;;16.90;;
26512;SDS011;14186;53.822;10.152;2022-09-24T14:08:02;21.15;;;15.82;;
26512;SDS011;14186;53.822;10.152;2022-09-24T14:13:11;25.27;;;18.05;;
26512;SDS011;14186;53.822;10.152;2022-09-24T14:18:14;24.17;;;16.67;;
26512;SDS011;14186;53.822;10.152;2022-09-24T14:23:15;32.88;;;19.10;;
26512;SDS011;14186;53.822;10.152;2022-09-24T14:28:17;28.17;;;18.60;;
26512;SDS011;14186;53.822;10.152;2022-09-24T14:33:20;35.30;;;21.02;;
26512;SDS011;14186;53.822;10.152;2022-09-24T14:38:22;26.95;;;18.02;;
26512;SDS011;14186;53.822;10.152;2022-09-24T14:43:24;23.83;;;16.73;;
26512;SDS011;14186;53.822;10.152;2022-09-24T14:48:30;25.60;;;17.42;;
26512;SDS011;14186;53.822;10.152;2022-09-24T14:53:31;34.88;;;20.85;;
26512;SDS011;14186;53.822;10.152;2022-09-24T14:58:32;90.38;;;33.97;;
26512;SDS011;14186;53.822;10.152;2022-09-24T15:03:36;38.60;;;18.88;;
26512;SDS011;14186;53.822;10.152;2022-09-24T15:08:37;40.60;;;20.55;;
26512;SDS011;14186;53.822;10.152;2022-09-24T15:13:38;36.27;;;19.47;;
26512;SDS011;14186;53.822;10.152;2022-09-24T15:18:39;36.15;;;23.98;;
26512;SDS011;14186;53.822;10.152;2022-09-24T15:23:39;26.02;;;17.48;;
26512;SDS011;14186;53.822;10.152;2022-09-24T15:28:40;21.77;;;15.85;;
26512;SDS011;14186;53.822;10.152;2022-09-24T15:33:41;23.52;;;15.60;;
26512;SDS011;14186;53.822;10.152;2022-09-24T15:38:41;26.90;;;20.35;;
26512;SDS011;14186;53.822;10.152;2022-09-24T15:43:42;23.73;;;15.52;;
26512;SDS011;14186;53.822;10.152;2022-09-24T15:48:43;23.20;;;16.92;;
26512;SDS011;14186;53.822;10.152;2022-09-24T15:53:44;22.13;;;16.77;;
26512;SDS011;14186;53.822;10.152;2022-09-24T15:58:44;24.33;;;17.63;;
26512;SDS011;14186;53.822;10.152;2022-09-24T16:03:46;22.42;;;16.60;;
26512;SDS011;14186;53.822;10.152;2022-09-24T16:08:47;27.55;;;19.80;;
26512;SDS011;14186;53.822;10.152;2022-09-24T16:13:48;29.88;;;19.77;;
26512;SDS011;14186;53.822;10.152;2022-09-24T16:18:50;26.63;;;20.00;;
26512;SDS011;14186;53.822;10.152;2022-09-24T16:23:52;27.50;;;19.48;;
26512;SDS011;14186;53.822;10.152;2022-09-24T16:28:52;24.95;;;18.17;;
26512;SDS011;14186;53.822;10.152;2022-09-24T16:33:54;25.50;;;18.55;;
26512;SDS011;14186;53.822;10.152;2022-09-24T16:38:55;27.52;;;18.75;;
26512;SDS011;14186;53.822;10.152;2022-09-24T16:43:56;29.60;;;22.40;;
26512;SDS011;14186;53.822;10.152;2022-09-24T16:48:57;26.73;;;17.80;;
26512;SDS011;14186;53.822;10.152;2022-09-24T16:53:58;26.38;;;19.27;;
26512;SDS011;14186;53.822;10.152;2022-09-24T16:58:59;28.08;;;20.42;;
26512;SDS011;14186;53.822;10.152;2022-09-24T17:04:00;30.70;;;22.50;;
26512;SDS011;14186;53.822;10.152;2022-09-24T17:09:01;31.92;;;23.40;;
26512;SDS011;14186;53.822;10.152;2022-09-24T17:14:01;32.40;;;20.98;;
26512;SDS011;14186;53.822;10.152;2022-09-24T17:19:02;30.38;;;21.55;;
26512;SDS011;14186;53.822;10.152;2022-09-24T17:24:03;33.45;;;22.83;;
26512;SDS011;14186;53.822;10.152;2022-09-24T17:29:03;33.80;;;22.37;;
26512;SDS011;14186;53.822;10.152;2022-09-24T17:34:05;33.75;;;22.63;;
26512;SDS011;14186;53.822;10.152;2022-09-24T17:39:06;32.55;;;22.35;;
26512;SDS011;14186;53.822;10.152;2022-09-24T17:44:06;36.90;;;24.70;;
26512;SDS011;14186;53.822;10.152;2022-09-24T17:49:08;33.70;;;22.35;;
26512;SDS011;14186;53.822;10.152;2022-09-24T17:54:09;31.73;;;22.30;;
26512;SDS011;14186;53.822;10.152;2022-09-24T17:59:11;35.40;;;23.80;;
26512;SDS011;14186;53.822;10.152;2022-09-24T18:04:13;43.47;;;27.25;;
26512;SDS011;14186;53.822;10.152;2022-09-24T18:09:15;36.83;;;24.15;;
26512;SDS011;14186;53.822;10.152;2022-09-24T18:14:16;34.92;;;23.38;;
26512;SDS011;14186;53.822;10.152;2022-09-24T18:19:19;39.95;;;24.10;;
26512;SDS011;14186;53.822;10.152;2022-09-24T18:24:19;37.38;;;23.83;;
26512;SDS011;14186;53.822;10.152;2022-09-24T18:29:19;44.58;;;28.42;;
26512;SDS011;14186;53.822;10.152;2022-09-24T18:34:21;45.58;;;27.77;;
26512;SDS011;14186;53.822;10.152;2022-09-24T18:39:21;43.42;;;27.90;;
26512;SDS011;14186;53.822;10.152;2022-09-24T18:44:21;39.65;;;26.83;;
26512;SDS011;14186;53.822;10.152;2022-09-24T18:49:23;41.78;;;27.75;;
26512;SDS011;14186;53.822;10.152;2022-09-24T18:54:23;41.45;;;26.67;;
26512;SDS011;14186;53.822;10.152;2022-09-24T18:59:24;40.00;;;25.63;;
26512;SDS011;14186;53.822;10.152;2022-09-24T19:04:25;43.70;;;27.30;;
26512;SDS011;14186;53.822;10.152;2022-09-24T19:09:26;42.30;;;28.40;;
26512;SDS011;14186;53.822;10.152;2022-09-24T19:14:27;44.72;;;28.52;;
26512;SDS011;14186;53.822;10.152;2022-09-24T19:19:28;43.78;;;28.48;;
26512;SDS011;14186;53.822;10.152;2022-09-24T19:24:29;42.92;;;27.92;;
26512;SDS011;14186;53.822;10.152;2022-09-24T19:29:30;42.73;;;27.73;;
26512;SDS011;14186;53.822;10.152;2022-09-24T19:34:32;43.90;;;28.67;;
26512;SDS011;14186;53.822;10.152;2022-09-24T19:39:32;48.17;;;30.15;;
26512;SDS011;14186;53.822;10.152;2022-09-24T19:44:32;43.42;;;28.05;;
26512;SDS011;14186;53.822;10.152;2022-09-24T19:49:34;44.40;;;29.30;;
26512;SDS011;14186;53.822;10.152;2022-09-24T19:54:34;49.88;;;31.10;;
26512;SDS011;14186;53.822;10.152;2022-09-24T19:59:34;78.20;;;42.42;;
26512;SDS011;14186;53.822;10.152;2022-09-24T20:04:36;54.78;;;34.53;;
26512;SDS011;14186;53.822;10.152;2022-09-24T20:09:36;56.53;;;34.63;;
26512;SDS011;14186;53.822;10.152;2022-09-24T20:14:36;49.50;;;32.47;;
26512;SDS011;14186;53.822;10.152;2022-09-24T20:19:38;46.88;;;28.55;;
26512;SDS011;14186;53.822;10.152;2022-09-24T20:24:38;52.85;;;33.85;;
26512;SDS011;14186;53.822;10.152;2022-09-24T20:29:38;50.40;;;31.75;;
26512;SDS011;14186;53.822;10.152;2022-09-24T20:34:40;49.50;;;30.50;;
26512;SDS011;14186;53.822;10.152;2022-09-24T20:39:40;55.65;;;32.05;;
26512;SDS011;14186;53.822;10.152;2022-09-24T20:44:40;52.45;;;33.15;;
26512;SDS011;14186;53.822;10.152;2022-09-24T20:49:42;54.25;;;33.58;;
26512;SDS011;14186;53.822;10.152;2022-09-24T20:54:42;59.63;;;36.90;;
26512;SDS011;14186;53.822;10.152;2022-09-24T20:59:42;53.15;;;33.60;;
26512;SDS011;14186;53.822;10.152;2022-09-24T21:04:45;50.72;;;31.50;;
26512;SDS011;14186;53.822;10.152;2022-09-24T21:09:45;56.47;;;36.28;;
26512;SDS011;14186;53.822;10.152;2022-09-24T21:14:46;57.58;;;34.03;;
26512;SDS011;14186;53.822;10.152;2022-09-24T21:19:48;54.13;;;33.58;;
26512;SDS011;14186;53.822;10.152;2022-09-24T21:24:48;48.75;;;30.92;;
26512;SDS011;14186;53.822;10.152;2022-09-24T21:29:48;49.43;;;29.27;;
26512;SDS011;14186;53.822;10.152;2022-09-24T21:34:50;44.17;;;28.98;;
26512;SDS011;14186;53.822;10.152;2022-09-24T21:39:50;41.05;;;27.13;;
26512;SDS011;14186;53.822;10.152;2022-09-24T21:44:50;39.70;;;26.73;;
26512;SDS011;14186;53.822;10.152;2022-09-24T21:49:52;38.10;;;25.40;;
26512;SDS011;14186;53.822;10.152;2022-09-24T21:54:52;42.40;;;26.77;;
26512;SDS011;14186;53.822;10.152;2022-09-24T21:59:52;39.15;;;25.63;;
26512;SDS011;14186;53.822;10.152;2022-09-24T22:04:54;40.67;;;24.85;;
26512;SDS011;14186;53.822;10.152;2022-09-24T22:09:54;36.90;;;23.38;;
26512;SDS011;14186;53.822;10.152;2022-09-24T22:14:54;34.63;;;23.45;;
26512;SDS011;14186;53.822;10.152;2022-09-24T22:19:56;31.02;;;21.65;;
26512;SDS011;14186;53.822;10.152;2022-09-24T22:24:56;31.83;;;22.33;;
26512;SDS011;14186;53.822;10.152;2022-09-24T22:29:56;31.73;;;22.15;;
26512;SDS011;14186;53.822;10.152;2022-09-24T22:34:58;35.72;;;22.55;;
26512;SDS011;14186;53.822;10.152;2022-09-24T22:39:59;38.88;;;20.80;;
26512;SDS011;14186;53.822;10.152;2022-09-24T22:44:59;38.38;;;20.67;;
26512;SDS011;14186;53.822;10.152;2022-09-24T22:50:01;38.25;;;21.50;;
26512;SDS011;14186;53.822;10.152;2022-09-24T22:55:01;38.45;;;21.25;;
26512;SDS011;14186;53.822;10.152;2022-09-24T23:00:02;40.03;;;21.90;;
26512;SDS011;14186;53.822;10.152;2022-09-24T23:05:06;38.45;;;21.15;;
26512;SDS011;14186;53.822;10.152;2022-09-24T23:10:07;38.47;;;22.73;;
26512;SDS011;14186;53.822;10.152;2022-09-24T23:15:08;34.65;;;20.63;;
26512;SDS011;14186;53.822;10.152;2022-09-24T23:20:11;34.07;;;18.87;;
26512;SDS011;14186;53.822;10.152;2022-09-24T23:25:11;35.42;;;20.85;;
26512;SDS011;14186;53.822;10.152;2022-09-24T23:30:11;36.20;;;19.73;;
26512;SDS011;14186;53.822;10.152;2022-09-24T23:35:13;37.88;;;21.05;;
26512;SDS011;14186;53.822;10.152;2022-09-24T23:40:13;43.28;;;20.90;;
26512;SDS011;14186;53.822;10.152;2022-09-24T23:45:13;39.55;;;22.52;;
26512;SDS011;14186;53.822;10.152;2022-09-24T23:50:15;35.78;;;20.83;;
26512;SDS011;14186;53.822;10.152;2022-09-24T23:55:15;40.72;;;21.80;;
